Hauptseite
METAR-TAF:

METAR-TAF

Flughäfen :

Rheine, Deutschland

Heeresflugplatz Rheine-Bentlage

Breite: 52-18N, Länge: 007-23E, Höhe: 40 m

Beobachtung

Neuester Wetterbericht von vor 30 Minuten, um 23:20 UTC
Wind 1 kt aus Südost
Temperatur 17°C
Luftfeuchtigkeit 72%
Luftdruck 1018 hPa

METAR: ETHE 162320Z AUTO 14001KT //// // ////// 17/12 Q1018 ///

Zeit: 01:50 (23:50 UTC)

Prognose

Neuester Wetterbericht von vor 10 Stunden und 35 Minuten, um 13:15 UTC
Gültige Prognose vom 16 um 14 UTC bis 16 um 23 UTC
Wind 3 kt aus unterschiedlichen Richtungen
Sichtweite: 1330 m
Leicht bewölkt in der Höhe von 3000 ft
Durchbrochene Bewölkung in der Höhe von 24000 ft

TAF: ETHE 161315Z 1614/1623 VRB03KT 9999 NSW FEW030 BKN240 CANCEL 1330

Wetterbeobachtungen und Prognosen von mehr als 4000 Flughäfen (METAR und TAF Bericht).

Die verfügbaren Stationen werden durch gelbe und rote Markierungen auf der Karte dargestellt.

Führen Sie die Maus auf sie, um den Namen der Station zu sehen.

Darauf klicken, um die Beobachtung von Wetterbeobachtungen und Prognosen zu sehen.

Um die Karte zu ändern : klicken Sie auf den grünen Tasten mit einem schwarzen Kreuz Zum Vergrößern, auf den grünen Button mit einem Gedankenstrich zu verkleinern, oder auf die grünen Pfeile für benachbarte Karten.


METAR-TAF: